Time;durP1;ratioP1;P1;durP2;ratioP2;P2;SDS_P1;SDS_P2;PMS_P1;PMS_P2;Temp;Humidity;BMP_temperature;BMP_pressure;BME280_temperature;BME280_humidity;BME280_pressure;Samples;Min_cycle;Max_cycle;Signal;HPM_P1;HPM_P2
2021/12/21 00:02:00;;;;;;;21.25;7.70;;;0.80;99.90;;;;;;5094478;28;20437;-78
2021/12/21 00:04:25;;;;;;;20.13;7.63;;;0.80;99.90;;;;;;5094458;28;20380;-77
2021/12/21 00:06:54;;;;;;;16.80;6.85;;;0.70;99.90;;;;;;5092412;28;20077;-77
2021/12/21 00:09:19;;;;;;;20.35;7.30;;;0.80;99.90;;;;;;5094262;28;20032;-75
2021/12/21 00:11:51;;;;;;;21.60;6.50;;;0.60;99.90;;;;;;5093582;28;20476;-75
2021/12/21 00:14:25;;;;;;;23.95;7.38;;;0.60;99.90;;;;;;5094137;28;20044;-77
2021/12/21 00:17:19;;;;;;;15.48;6.57;;;0.60;99.90;;;;;;5094449;28;20020;-77
2021/12/21 00:19:52;;;;;;;17.85;6.47;;;0.60;99.90;;;;;;5092904;28;20384;-77
2021/12/21 00:22:57;;;;;;;;;;;0.60;99.90;;;;;;5094031;28;20489;-77
2021/12/21 00:25:03;;;;;;;17.27;7.90;;;0.50;99.90;;;;;;5093177;28;19911;-77
2021/12/21 00:27:32;;;;;;;22.80;7.32;;;0.50;99.90;;;;;;5093024;28;20040;-78
2021/12/21 00:29:57;;;;;;;21.33;6.50;;;0.50;99.90;;;;;;5093364;28;20533;-77
2021/12/21 00:32:23;;;;;;;15.63;6.68;;;0.50;99.90;;;;;;5093257;28;20111;-77
2021/12/21 00:34:49;;;;;;;16.00;6.95;;;0.60;99.90;;;;;;5092947;28;20157;-77
2021/12/21 00:37:15;;;;;;;16.48;6.57;;;0.50;99.90;;;;;;5093154;28;20103;-77
2021/12/21 00:39:40;;;;;;;18.83;6.97;;;0.40;99.90;;;;;;5093489;28;20104;-76
2021/12/21 00:42:06;;;;;;;12.07;6.68;;;0.50;99.90;;;;;;5105291;28;20130;-76
2021/12/21 00:44:32;;;;;;;22.38;6.45;;;0.40;99.90;;;;;;5096062;28;20507;-75
2021/12/21 00:46:58;;;;;;;16.02;6.72;;;0.40;99.90;;;;;;5092572;28;20050;-74
2021/12/21 00:49:24;;;;;;;14.85;8.05;;;0.40;99.90;;;;;;5093761;28;20032;-76
2021/12/21 00:51:50;;;;;;;17.35;6.45;;;0.40;99.90;;;;;;5102927;28;20031;-76
2021/12/21 00:54:18;;;;;;;13.18;6.43;;;0.30;99.90;;;;;;5096075;28;20043;-76
2021/12/21 00:56:47;;;;;;;17.17;6.55;;;0.30;99.90;;;;;;5105943;28;20024;-77
2021/12/21 00:59:13;;;;;;;16.30;6.63;;;0.30;99.90;;;;;;5096296;28;20077;-76
2021/12/21 01:01:42;;;;;;;18.75;6.20;;;0.30;99.90;;;;;;5092974;28;20028;-77
2021/12/21 01:04:17;;;;;;;22.08;7.10;;;0.30;99.90;;;;;;5093238;28;20460;-76
2021/12/21 01:06:57;;;;;;;12.77;6.43;;;0.30;99.90;;;;;;5096217;28;20068;-76
2021/12/21 01:11:58;;;;;;;13.90;6.07;;;0.30;99.90;;;;;;5093639;28;20028;-77
2021/12/21 01:19:31;;;;;;;18.25;6.68;;;0.20;99.90;;;;;;5094166;28;20476;-76
2021/12/21 01:22:07;;;;;;;14.82;6.45;;;0.20;99.90;;;;;;5093835;28;20528;-76
2021/12/21 01:29:48;;;;;;;18.85;8.52;;;0.20;99.90;;;;;;5091859;28;20486;-77
2021/12/21 01:32:26;;;;;;;14.40;6.07;;;0.10;99.90;;;;;;5094368;28;20024;-77
2021/12/21 01:37:34;;;;;;;22.48;6.97;;;0.10;99.90;;;;;;5092701;28;20024;-77
2021/12/21 01:40:54;;;;;;;21.40;6.60;;;0.10;99.90;;;;;;5093310;28;20084;-77
2021/12/21 01:51:12;;;;;;;12.43;6.95;;;0.10;99.90;;;;;;5029794;28;20072;-76
2021/12/21 01:53:39;;;;;;;23.25;7.35;;;0.00;99.90;;;;;;5072016;28;20105;-77
2021/12/21 01:56:05;;;;;;;15.25;5.90;;;0.10;99.90;;;;;;5096655;28;20024;-78
2021/12/21 01:58:33;;;;;;;20.50;6.15;;;0.00;99.90;;;;;;5095817;28;20028;-77
2021/12/21 02:01:00;;;;;;;12.73;5.93;;;0.00;99.90;;;;;;5097016;28;20464;-77
2021/12/21 02:03:25;;;;;;;20.80;6.72;;;0.00;99.90;;;;;;5096548;28;20036;-77
2021/12/21 02:05:51;;;;;;;25.48;6.63;;;-0.10;99.90;;;;;;5095785;28;20024;-77
2021/12/21 02:08:19;;;;;;;15.40;5.95;;;-0.10;99.90;;;;;;5096184;28;20388;-76
2021/12/21 02:10:44;;;;;;;20.73;5.95;;;-0.10;99.90;;;;;;5096256;28;20028;-77
2021/12/21 02:13:10;;;;;;;12.90;5.85;;;-0.20;99.90;;;;;;5095138;28;20111;-77
2021/12/21 02:15:36;;;;;;;17.40;6.70;;;-0.20;99.90;;;;;;5095996;28;20043;-76
2021/12/21 02:20:53;;;;;;;15.27;5.88;;;-0.20;99.90;;;;;;5096569;28;20084;-78
2021/12/21 02:23:27;;;;;;;11.68;6.40;;;-0.20;99.90;;;;;;5096512;28;20074;-76
2021/12/21 02:26:06;;;;;;;15.40;6.78;;;-0.20;99.90;;;;;;5095357;28;20028;-77
2021/12/21 02:31:07;;;;;;;18.25;6.97;;;-0.10;99.90;;;;;;5095870;28;20024;-76
2021/12/21 02:33:34;;;;;;;16.15;6.60;;;-0.20;99.90;;;;;;5095282;28;20099;-76
2021/12/21 02:36:00;;;;;;;14.30;5.72;;;-0.10;99.90;;;;;;5095862;28;20079;-77
2021/12/21 02:38:27;;;;;;;15.27;6.85;;;-0.20;99.90;;;;;;5095419;28;20376;-78
2021/12/21 02:40:53;;;;;;;11.48;6.45;;;-0.20;99.90;;;;;;5095022;28;20024;-76
2021/12/21 02:43:18;;;;;;;19.98;6.72;;;-0.20;99.90;;;;;;5105311;28;20027;-77
2021/12/21 02:45:44;;;;;;;12.35;6.00;;;-0.20;99.90;;;;;;5101594;28;20395;-78
2021/12/21 02:48:10;;;;;;;18.73;6.05;;;-0.20;99.90;;;;;;5094397;28;20062;-78
2021/12/21 02:50:38;;;;;;;14.60;6.18;;;-0.20;99.90;;;;;;5094555;28;20028;-76
2021/12/21 02:53:04;;;;;;;9.23;5.88;;;-0.30;99.90;;;;;;5098511;28;20444;-77
2021/12/21 02:55:30;;;;;;;18.55;6.43;;;-0.30;99.90;;;;;;5097435;28;20087;-77
2021/12/21 02:57:57;;;;;;;18.05;6.03;;;-0.40;99.90;;;;;;5104256;28;20035;-77
2021/12/21 03:00:27;;;;;;;16.40;7.57;;;-0.40;99.90;;;;;;5101231;28;20141;-76
2021/12/21 03:02:53;;;;;;;20.73;7.00;;;-0.40;99.90;;;;;;5094188;28;20020;-78
2021/12/21 03:05:20;;;;;;;10.52;7.22;;;-0.40;99.90;;;;;;5094371;28;20039;-76
2021/12/21 03:10:27;;;;;;;13.95;6.70;;;-0.40;99.90;;;;;;5094044;28;20028;-77
2021/12/21 03:15:37;;;;;;;11.65;6.00;;;-0.30;99.90;;;;;;5093270;28;20162;-78
2021/12/21 03:18:03;;;;;;;17.42;6.72;;;-0.40;99.90;;;;;;5093618;28;20483;-76
2021/12/21 03:20:29;;;;;;;16.67;6.50;;;-0.40;99.90;;;;;;5093819;28;20453;-75
2021/12/21 03:22:55;;;;;;;13.60;6.95;;;-0.50;99.90;;;;;;5093362;28;20027;-76
2021/12/21 03:25:21;;;;;;;12.68;5.78;;;-0.50;99.90;;;;;;5093293;28;20476;-78
2021/12/21 03:27:47;;;;;;;23.52;7.38;;;-0.50;99.90;;;;;;5093540;28;20409;-76
2021/12/21 03:30:15;;;;;;;9.52;5.80;;;-0.50;99.90;;;;;;5092731;28;20194;-76
2021/12/21 03:32:42;;;;;;;18.95;6.18;;;-0.60;99.90;;;;;;5093450;28;20024;-76
2021/12/21 03:35:08;;;;;;;14.60;7.40;;;-0.60;99.90;;;;;;5092872;28;20521;-76
2021/12/21 03:37:34;;;;;;;19.83;7.78;;;-0.60;99.90;;;;;;5093552;28;20111;-77
2021/12/21 03:40:02;;;;;;;17.67;7.82;;;-0.60;99.90;;;;;;5094369;28;20050;-78
2021/12/21 03:42:28;;;;;;;12.02;6.75;;;-0.60;99.90;;;;;;5095989;28;20024;-76
2021/12/21 03:44:53;;;;;;;18.88;6.60;;;-0.60;99.90;;;;;;5093486;28;20050;-76
2021/12/21 03:47:22;;;;;;;20.40;7.88;;;-0.50;99.90;;;;;;5057475;28;1073817;-74
2021/12/21 03:52:17;;;;;;;16.05;6.00;;;-0.60;99.90;;;;;;5094523;28;20028;-77
2021/12/21 03:54:45;;;;;;;9.73;5.53;;;-0.60;99.90;;;;;;5094663;28;20151;-76
2021/12/21 03:57:11;;;;;;;17.33;5.57;;;-0.70;99.90;;;;;;5095992;28;20125;-77
2021/12/21 03:59:37;;;;;;;15.35;6.22;;;-0.70;99.90;;;;;;5096466;28;20365;-76
2021/12/21 04:02:06;;;;;;;10.80;6.25;;;-0.80;99.90;;;;;;5093995;28;20028;-75
2021/12/21 04:04:31;;;;;;;11.00;5.85;;;-0.80;99.90;;;;;;5093436;28;20031;-76
2021/12/21 04:06:57;;;;;;;13.05;6.00;;;-0.80;99.90;;;;;;5093300;28;20119;-76
2021/12/21 04:09:22;;;;;;;12.55;6.07;;;-0.90;99.90;;;;;;5093829;28;20400;-77
2021/12/21 04:11:48;;;;;;;11.52;6.30;;;-0.90;99.90;;;;;;5093882;28;20044;-76
2021/12/21 04:14:16;;;;;;;13.57;6.60;;;-1.00;99.90;;;;;;5092803;28;20036;-78
2021/12/21 04:16:41;;;;;;;10.60;6.15;;;-0.90;99.90;;;;;;5093608;28;20032;-76
2021/12/21 04:19:07;;;;;;;22.70;7.10;;;-0.90;99.90;;;;;;5092896;28;20434;-78
2021/12/21 04:21:33;;;;;;;21.63;8.23;;;-0.80;99.90;;;;;;5093694;28;20384;-76
2021/12/21 04:23:58;;;;;;;22.38;8.88;;;-0.70;99.90;;;;;;5093802;28;20028;-76
2021/12/21 04:26:24;;;;;;;16.88;8.20;;;-0.80;99.90;;;;;;5092696;28;20472;-77
2021/12/21 04:28:51;;;;;;;17.38;8.40;;;-0.80;99.90;;;;;;5093752;28;20027;-75
2021/12/21 04:31:16;;;;;;;19.05;8.38;;;-0.80;99.90;;;;;;5093136;28;20028;-77
2021/12/21 04:33:46;;;;;;;18.23;8.68;;;-0.90;99.90;;;;;;5092622;28;20059;-76
2021/12/21 04:36:13;;;;;;;16.40;8.05;;;-0.90;99.90;;;;;;5093205;28;20081;-78
2021/12/21 04:38:43;;;;;;;16.23;7.75;;;-0.90;99.90;;;;;;5093559;28;20043;-76
2021/12/21 04:41:15;;;;;;;24.05;10.07;;;-1.00;99.90;;;;;;5092863;28;20489;-78
2021/12/21 04:43:42;;;;;;;26.80;13.38;;;-1.00;99.90;;;;;;5094883;28;20391;-77
2021/12/21 04:46:09;;;;;;;32.80;16.35;;;-1.00;99.90;;;;;;5102660;28;20016;-77
2021/12/21 04:48:34;;;;;;;26.90;12.05;;;-1.10;99.90;;;;;;5094367;28;20131;-76
2021/12/21 04:51:01;;;;;;;18.25;9.98;;;-1.10;99.90;;;;;;5093449;28;20491;-78
2021/12/21 04:53:26;;;;;;;18.13;10.40;;;-1.10;99.90;;;;;;5092772;28;20101;-77
2021/12/21 04:55:52;;;;;;;16.08;9.63;;;-1.10;99.90;;;;;;5106770;28;20040;-77
2021/12/21 04:58:18;;;;;;;20.00;9.88;;;-1.10;99.90;;;;;;5094958;28;20024;-77
2021/12/21 05:00:43;;;;;;;15.50;9.60;;;-1.10;99.90;;;;;;5108546;28;20027;-75
2021/12/21 05:03:09;;;;;;;15.77;10.00;;;-1.10;99.90;;;;;;5094593;28;20384;-77
2021/12/21 05:05:35;;;;;;;15.82;8.80;;;-1.10;99.90;;;;;;5093584;28;20095;-78
2021/12/21 05:08:09;;;;;;;16.27;8.15;;;-1.10;99.90;;;;;;5092538;28;20028;-76
2021/12/21 05:10:46;;;;;;;20.17;8.55;;;-1.10;99.90;;;;;;5092962;28;20429;-77
2021/12/21 05:13:12;;;;;;;18.85;7.88;;;-1.10;99.90;;;;;;5092718;28;20020;-76
2021/12/21 05:15:38;;;;;;;13.95;8.07;;;-1.00;99.90;;;;;;5093018;28;20036;-78
2021/12/21 05:18:04;;;;;;;20.20;8.77;;;-1.00;99.90;;;;;;5093085;28;20114;-77
2021/12/21 05:20:29;;;;;;;17.27;7.75;;;-1.10;99.90;;;;;;5093001;28;20074;-76
2021/12/21 05:22:55;;;;;;;16.13;8.73;;;-1.00;99.90;;;;;;5093073;28;20022;-76
2021/12/21 05:25:21;;;;;;;13.85;7.85;;;-1.10;99.90;;;;;;5093467;28;20081;-78
2021/12/21 05:27:46;;;;;;;17.20;8.32;;;-1.10;99.90;;;;;;5093309;28;20020;-77
2021/12/21 05:30:13;;;;;;;13.48;7.95;;;-1.20;99.90;;;;;;5092666;28;20380;-76
2021/12/21 05:32:39;;;;;;;18.08;9.35;;;-1.20;99.90;;;;;;5093872;28;20020;-79
2021/12/21 05:35:06;;;;;;;14.65;7.30;;;-1.20;99.90;;;;;;5092271;28;20074;-77
2021/12/21 05:37:32;;;;;;;14.43;8.43;;;-1.20;99.90;;;;;;5092421;28;20045;-77
2021/12/21 05:40:09;;;;;;;12.77;6.88;;;-1.30;99.90;;;;;;5093262;28;20039;-77
2021/12/21 05:42:35;;;;;;;17.98;7.63;;;-1.30;99.90;;;;;;5092233;28;20036;-77
2021/12/21 05:45:01;;;;;;;12.32;7.38;;;-1.20;99.90;;;;;;5092312;28;20376;-77
2021/12/21 05:47:26;;;;;;;15.95;8.02;;;-1.30;99.90;;;;;;5091825;28;20044;-76
2021/12/21 05:49:52;;;;;;;14.35;6.88;;;-1.30;99.90;;;;;;5092231;28;20024;-77
2021/12/21 05:52:17;;;;;;;14.82;7.80;;;-1.30;99.90;;;;;;5092273;28;20016;-76
2021/12/21 05:54:43;;;;;;;18.10;8.27;;;-1.40;99.90;;;;;;5092790;28;20396;-77
2021/12/21 05:57:08;;;;;;;12.55;6.57;;;-1.40;99.90;;;;;;5092516;28;20077;-76
2021/12/21 05:59:34;;;;;;;11.23;7.10;;;-1.40;99.90;;;;;;5092978;28;20423;-77
2021/12/21 06:02:00;;;;;;;14.68;7.05;;;-1.40;99.90;;;;;;5092746;28;20020;-78
2021/12/21 06:04:26;;;;;;;16.25;7.13;;;-1.40;99.90;;;;;;5092017;28;20077;-76
2021/12/21 06:06:52;;;;;;;15.93;6.90;;;-1.40;99.90;;;;;;5092734;28;20024;-77
2021/12/21 06:09:17;;;;;;;12.32;7.05;;;-1.40;99.90;;;;;;5091987;28;20069;-78
2021/12/21 06:11:55;;;;;;;15.55;7.03;;;-1.50;99.90;;;;;;5091485;28;20392;-77
2021/12/21 06:15:16;;;;;;;12.63;6.65;;;-1.50;99.90;;;;;;5092569;28;20169;-77
2021/12/21 06:22:51;;;;;;;9.80;6.47;;;-1.40;99.90;;;;;;5092443;28;20039;-77
2021/12/21 06:27:43;;;;;;;12.00;6.93;;;-1.40;99.90;;;;;;5092007;28;20077;-75
2021/12/21 06:30:09;;;;;;;14.23;6.35;;;-1.50;99.90;;;;;;5092290;28;20115;-77
2021/12/21 06:32:35;;;;;;;16.45;7.95;;;-1.40;99.90;;;;;;5093131;28;20032;-76
2021/12/21 06:35:01;;;;;;;17.00;7.18;;;-1.40;99.90;;;;;;5092921;28;20032;-76
2021/12/21 06:37:27;;;;;;;22.45;7.30;;;-1.50;99.90;;;;;;5092532;28;20020;-78
2021/12/21 06:39:52;;;;;;;13.57;7.13;;;-1.50;99.90;;;;;;5095657;28;20107;-77
2021/12/21 06:42:18;;;;;;;17.20;6.85;;;-1.50;99.90;;;;;;5095773;28;20099;-78
2021/12/21 06:44:47;;;;;;;12.95;6.78;;;-1.50;99.90;;;;;;5096260;28;20028;-77
2021/12/21 06:52:42;;;;;;;13.35;7.00;;;-1.50;99.90;;;;;;5093805;28;20042;-77
2021/12/21 06:55:08;;;;;;;20.95;7.63;;;-1.50;99.90;;;;;;5081374;28;20123;-77
2021/12/21 06:57:34;;;;;;;20.20;7.25;;;-1.50;99.90;;;;;;5089290;28;20039;-78
2021/12/21 07:00:00;;;;;;;14.30;7.28;;;-1.50;99.90;;;;;;5076209;28;20027;-78
2021/12/21 07:02:26;;;;;;;12.90;6.78;;;-1.50;99.90;;;;;;5089091;28;20021;-78
2021/12/21 07:04:52;;;;;;;17.30;7.40;;;-1.50;99.90;;;;;;5081231;28;20540;-77
2021/12/21 07:07:18;;;;;;;11.90;6.93;;;-1.50;99.90;;;;;;5074649;28;20025;-77
2021/12/21 07:09:47;;;;;;;23.20;8.18;;;-1.50;99.90;;;;;;5074538;28;20519;-78
2021/12/21 07:17:46;;;;;;;15.15;8.13;;;-1.50;99.90;;;;;;5078649;28;20024;-77
2021/12/21 07:18:13;;;;;;;15.88;7.47;;;-1.60;99.90;;;;;;5075008;28;20078;-77
2021/12/21 07:20:39;;;;;;;22.58;7.13;;;-1.60;99.90;;;;;;5074899;28;20020;-77
2021/12/21 07:23:06;;;;;;;10.52;7.18;;;-1.60;99.90;;;;;;5073830;28;20443;-78
2021/12/21 07:25:32;;;;;;;14.30;7.82;;;-1.70;99.90;;;;;;5074306;28;20065;-77
2021/12/21 07:28:00;;;;;;;17.45;7.72;;;-1.60;99.90;;;;;;5073742;28;20017;-77
2021/12/21 07:30:26;;;;;;;14.35;6.82;;;-1.70;99.90;;;;;;5073820;28;20029;-77
2021/12/21 07:32:52;;;;;;;14.93;8.02;;;-1.60;99.90;;;;;;5074424;28;20161;-79
2021/12/21 07:35:17;;;;;;;19.13;8.70;;;-1.60;99.90;;;;;;5074495;28;20067;-77
2021/12/21 07:37:43;;;;;;;11.80;7.13;;;-1.60;99.90;;;;;;5074432;28;20108;-75
2021/12/21 07:40:09;;;;;;;15.85;7.53;;;-1.60;99.90;;;;;;5073941;28;20025;-78
2021/12/21 07:42:34;;;;;;;17.38;6.28;;;-1.50;99.90;;;;;;5092429;28;20016;-77
2021/12/21 07:45:00;;;;;;;16.17;7.80;;;-1.50;99.90;;;;;;5092446;28;20395;-77
2021/12/21 07:47:26;;;;;;;18.45;8.73;;;-1.50;99.90;;;;;;5085797;28;20056;-79
2021/12/21 07:49:51;;;;;;;23.00;9.13;;;-1.50;99.90;;;;;;5077446;28;20107;-78
2021/12/21 07:52:18;;;;;;;17.20;8.15;;;-1.60;99.90;;;;;;5093305;28;20020;-80
2021/12/21 07:54:44;;;;;;;18.60;8.10;;;-1.50;99.90;;;;;;5095125;28;20029;-78
2021/12/21 07:57:10;;;;;;;24.25;8.25;;;-1.50;99.90;;;;;;5095868;28;20016;-78
2021/12/21 07:59:38;;;;;;;19.30;7.65;;;-1.50;99.90;;;;;;5079550;28;20465;-78
2021/12/21 08:02:05;;;;;;;14.43;7.82;;;-1.50;99.90;;;;;;5088285;28;20016;-77
2021/12/21 08:04:31;;;;;;;12.45;7.55;;;-1.50;99.90;;;;;;5074129;28;20033;-76
2021/12/21 08:07:02;;;;;;;17.05;8.88;;;-1.60;99.90;;;;;;5075141;28;20024;-79
2021/12/21 08:09:36;;;;;;;15.05;8.30;;;-1.50;99.90;;;;;;5075279;28;20028;-76
2021/12/21 08:14:37;;;;;;;15.15;7.38;;;-1.50;99.90;;;;;;5079120;28;20040;-80
2021/12/21 08:17:02;;;;;;;30.75;8.43;;;-1.50;99.90;;;;;;5092756;28;20032;-74
2021/12/21 08:19:28;;;;;;;16.98;7.57;;;-1.50;99.90;;;;;;5097505;28;20110;-78
2021/12/21 08:21:53;;;;;;;18.63;8.85;;;-1.40;99.90;;;;;;5092939;28;20012;-76
2021/12/21 08:24:19;;;;;;;20.35;8.07;;;-1.40;99.90;;;;;;5077188;27;20021;-78
2021/12/21 08:26:44;;;;;;;16.90;7.70;;;-1.40;99.90;;;;;;5095127;28;20037;-78
2021/12/21 08:29:10;;;;;;;18.27;7.78;;;-1.40;99.90;;;;;;5089653;28;20025;-79
2021/12/21 08:31:36;;;;;;;23.67;9.07;;;-1.40;99.90;;;;;;5090237;28;20012;-81
2021/12/21 08:34:02;;;;;;;16.77;8.27;;;-1.30;99.90;;;;;;5117540;28;20107;-76
2021/12/21 08:36:28;;;;;;;22.85;9.40;;;-1.20;99.90;;;;;;5109449;28;20052;-81
2021/12/21 08:38:55;;;;;;;24.42;9.65;;;-1.10;99.90;;;;;;5088522;28;20033;-81
2021/12/21 08:41:22;;;;;;;18.33;8.65;;;-1.00;99.90;;;;;;5082190;28;20036;-81
2021/12/21 08:43:49;;;;;;;24.20;9.02;;;-1.00;99.90;;;;;;5076945;28;20016;-77
2021/12/21 08:46:14;;;;;;;17.65;8.68;;;-0.80;99.90;;;;;;5081601;28;20029;-81
2021/12/21 08:48:40;;;;;;;18.05;9.27;;;-0.90;99.90;;;;;;5090728;28;20052;-81
2021/12/21 08:51:08;;;;;;;17.65;8.77;;;-0.80;99.90;;;;;;5087946;28;20031;-82
2021/12/21 08:53:37;;;;;;;17.40;9.15;;;-0.70;99.90;;;;;;5096053;28;20023;-81
2021/12/21 08:56:03;;;;;;;19.13;9.27;;;-0.60;99.90;;;;;;5092813;28;20045;-80
2021/12/21 08:58:28;;;;;;;20.52;9.30;;;-0.60;99.90;;;;;;5091832;28;20044;-78
2021/12/21 09:00:54;;;;;;;15.77;8.88;;;-0.60;99.90;;;;;;5084543;28;20056;-77
2021/12/21 09:03:20;;;;;;;15.10;9.02;;;-0.50;99.90;;;;;;5087353;28;20544;-79
2021/12/21 09:05:46;;;;;;;21.38;9.27;;;-0.50;99.90;;;;;;5087872;28;20036;-78
2021/12/21 09:08:12;;;;;;;16.73;8.32;;;-0.40;99.90;;;;;;5082006;28;20028;-82
2021/12/21 09:10:39;;;;;;;13.65;8.93;;;-0.40;99.90;;;;;;5089007;28;20488;-81
2021/12/21 09:13:05;;;;;;;20.10;8.45;;;-0.30;99.90;;;;;;5087476;28;20483;-82
2021/12/21 09:15:31;;;;;;;11.93;8.40;;;-0.30;99.90;;;;;;5084741;28;20032;-80
2021/12/21 09:17:58;;;;;;;23.50;9.25;;;-0.30;99.90;;;;;;5081648;28;20016;-80
2021/12/21 09:20:26;;;;;;;21.63;11.05;;;-0.20;99.90;;;;;;5081779;28;20024;-80
2021/12/21 09:22:53;;;;;;;22.25;11.50;;;-0.10;99.90;;;;;;5087867;28;20085;-79
2021/12/21 09:25:20;;;;;;;25.83;11.30;;;0.00;99.90;;;;;;5084979;28;20030;-81
2021/12/21 09:27:46;;;;;;;19.80;10.35;;;0.00;99.90;;;;;;5091416;28;20017;-82
2021/12/21 09:30:14;;;;;;;25.38;11.90;;;0.00;99.90;;;;;;5089157;28;20032;-81
2021/12/21 09:32:40;;;;;;;21.25;10.35;;;0.10;99.90;;;;;;5085542;28;20440;-82
2021/12/21 09:35:07;;;;;;;22.55;9.20;;;0.20;99.90;;;;;;5087930;28;20075;-82
2021/12/21 09:37:32;;;;;;;13.80;9.20;;;0.30;99.90;;;;;;5082575;28;20021;-78
2021/12/21 09:39:59;;;;;;;18.20;10.23;;;0.30;99.90;;;;;;5082537;28;20028;-79
2021/12/21 09:42:30;;;;;;;21.00;9.25;;;0.40;99.90;;;;;;5080219;28;20065;-79
2021/12/21 09:44:57;;;;;;;23.60;10.20;;;0.40;99.90;;;;;;5083842;28;20111;-80
2021/12/21 09:47:23;;;;;;;21.90;10.48;;;0.50;99.90;;;;;;5085820;28;20070;-77
2021/12/21 09:49:49;;;;;;;18.15;10.35;;;0.60;99.90;;;;;;5102781;28;20059;-77
2021/12/21 09:52:20;;;;;;;21.95;11.10;;;0.70;99.90;;;;;;5106907;28;20024;-77
2021/12/21 09:54:46;;;;;;;21.40;9.68;;;0.80;99.90;;;;;;5096961;28;20048;-77
2021/12/21 09:57:16;;;;;;;33.35;10.98;;;0.80;99.90;;;;;;5085505;28;20379;-77
2021/12/21 09:59:45;;;;;;;22.70;10.33;;;0.90;99.90;;;;;;5091994;28;20091;-76
2021/12/21 10:02:11;;;;;;;22.48;11.00;;;0.90;99.90;;;;;;5102833;28;20035;-78
2021/12/21 10:04:47;;;;;;;17.85;10.60;;;1.00;99.90;;;;;;5095775;28;20476;-78
2021/12/21 10:07:18;;;;;;;21.88;10.88;;;0.80;99.90;;;;;;5094293;28;20081;-77
2021/12/21 10:09:45;;;;;;;;;;;1.10;99.90;;;;;;5100285;28;20028;-77
2021/12/21 10:12:28;;;;;;;16.48;9.65;;;1.20;99.90;;;;;;5096066;28;19908;-78
2021/12/21 10:15:03;;;;;;;22.25;10.68;;;1.30;99.90;;;;;;5102244;28;20116;-77
2021/12/21 10:17:32;;;;;;;16.38;9.77;;;1.30;99.90;;;;;;5105926;28;20465;-79
2021/12/21 10:20:04;;;;;;;22.52;10.55;;;1.30;99.90;;;;;;5098900;28;20032;-76
2021/12/21 10:22:29;;;;;;;19.83;10.18;;;1.40;99.90;;;;;;5091375;27;20086;-77
2021/12/21 10:24:55;;;;;;;22.85;11.43;;;1.40;99.90;;;;;;5081121;28;20021;-79
2021/12/21 10:27:24;;;;;;;24.05;9.25;;;1.50;99.90;;;;;;5082292;28;20453;-77
2021/12/21 10:29:53;;;;;;;22.70;11.52;;;1.50;99.90;;;;;;5098004;28;20031;-81
2021/12/21 10:32:29;;;;;;;26.60;11.30;;;1.50;99.90;;;;;;5103485;28;20058;-78
2021/12/21 10:35:06;;;;;;;19.42;10.43;;;1.60;99.90;;;;;;5107046;28;20046;-77
2021/12/21 10:37:34;;;;;;;22.98;10.30;;;1.70;99.90;;;;;;5110451;28;20026;-77
2021/12/21 10:40:09;;;;;;;25.65;11.07;;;1.70;99.90;;;;;;5100115;28;20089;-78
2021/12/21 10:42:48;;;;;;;24.60;10.68;;;1.80;99.90;;;;;;5088894;28;20020;-77
2021/12/21 10:45:14;;;;;;;34.67;12.13;;;1.80;99.90;;;;;;5104590;28;20818;-78
2021/12/21 10:47:43;;;;;;;19.25;9.90;;;1.90;99.90;;;;;;5101304;28;20074;-77
2021/12/21 10:50:09;;;;;;;26.65;11.00;;;1.90;99.90;;;;;;5107956;28;20028;-77
2021/12/21 10:52:34;;;;;;;20.75;10.60;;;1.90;99.90;;;;;;5096808;28;20084;-76
2021/12/21 10:55:04;;;;;;;22.73;11.15;;;2.00;99.90;;;;;;5104965;28;20039;-77
2021/12/21 10:57:32;;;;;;;19.15;9.82;;;2.10;99.90;;;;;;5104919;28;20035;-75
2021/12/21 11:00:04;;;;;;;22.20;11.25;;;2.10;99.90;;;;;;5098432;28;20024;-77
2021/12/21 11:02:34;;;;;;;27.92;11.70;;;2.10;99.90;;;;;;5105456;28;20375;-75
2021/12/21 11:05:09;;;;;;;26.92;11.18;;;2.20;99.90;;;;;;5104086;28;20035;-78
2021/12/21 11:07:40;;;;;;;21.73;10.70;;;2.20;99.90;;;;;;5098475;28;20031;-76
2021/12/21 11:10:19;;;;;;;19.90;11.20;;;2.30;99.90;;;;;;5104439;28;20032;-76
2021/12/21 11:12:52;;;;;;;24.65;10.98;;;2.40;99.90;;;;;;5094505;28;20498;-77
2021/12/21 11:15:29;;;;;;;20.52;9.27;;;2.40;99.90;;;;;;5095863;28;20036;-77
2021/12/21 11:18:00;;;;;;;25.25;10.60;;;2.40;99.90;;;;;;5111849;28;20077;-77
2021/12/21 11:20:26;;;;;;;22.25;9.30;;;2.50;99.90;;;;;;5097189;28;20361;-78
2021/12/21 11:22:53;;;;;;;20.60;10.13;;;2.60;99.90;;;;;;5106300;28;20062;-79
2021/12/21 11:25:20;;;;;;;19.38;9.23;;;2.60;99.90;;;;;;5113336;28;20031;-79
2021/12/21 11:27:46;;;;;;;23.13;10.63;;;2.60;99.90;;;;;;5097456;28;20024;-80
2021/12/21 11:30:16;;;;;;;18.17;9.48;;;2.70;99.90;;;;;;5100615;28;20719;-81
2021/12/21 11:32:48;;;;;;;27.00;11.43;;;2.70;99.90;;;;;;5100798;28;20047;-81
2021/12/21 11:37:47;;;;;;;19.63;10.10;;;2.80;99.90;;;;;;5094630;28;20048;-79
2021/12/21 11:40:21;;;;;;;18.45;10.15;;;2.80;99.90;;;;;;5096684;28;20388;-80
2021/12/21 11:42:50;;;;;;;20.35;9.38;;;2.80;99.90;;;;;;5094094;28;20051;-79
2021/12/21 11:45:46;;;;;;;23.58;10.73;;;2.80;99.90;;;;;;5091693;28;20020;-79
2021/12/21 11:48:22;;;;;;;21.00;8.93;;;2.90;99.90;;;;;;5083641;28;20147;-80
2021/12/21 11:50:48;;;;;;;20.10;9.27;;;3.00;99.90;;;;;;5090466;28;20024;-77
2021/12/21 11:53:17;;;;;;;14.48;8.85;;;3.00;99.90;;;;;;5088610;28;20019;-79
2021/12/21 11:55:47;;;;;;;13.50;8.20;;;3.00;99.90;;;;;;5086033;28;20039;-80
2021/12/21 11:58:20;;;;;;;11.10;7.32;;;3.10;99.90;;;;;;5085010;28;20499;-80
2021/12/21 12:01:00;;;;;;;13.18;7.28;;;3.10;99.90;;;;;;5082306;28;20016;-81
2021/12/21 12:03:28;;;;;;;24.30;7.80;;;3.10;99.90;;;;;;5099599;28;20032;-80
2021/12/21 12:06:00;;;;;;;15.98;7.13;;;3.20;99.90;;;;;;5112706;28;20087;-81
2021/12/21 12:08:46;;;;;;;17.35;7.68;;;3.20;99.90;;;;;;5103068;28;20016;-80
2021/12/21 12:11:25;;;;;;;15.57;8.10;;;3.30;99.90;;;;;;5103853;28;20067;-80
2021/12/21 12:14:03;;;;;;;19.63;8.93;;;3.40;99.90;;;;;;5101370;28;20032;-80
2021/12/21 12:16:49;;;;;;;19.20;8.48;;;3.40;99.90;;;;;;5099847;28;20035;-81
2021/12/21 12:19:21;;;;;;;20.85;9.25;;;3.40;99.90;;;;;;5107379;28;20024;-80
2021/12/21 12:22:01;;;;;;;15.13;7.28;;;3.40;99.90;;;;;;5102972;28;20032;-80
2021/12/21 12:24:37;;;;;;;12.85;7.95;;;3.40;99.90;;;;;;5094125;28;20028;-80
2021/12/21 12:27:16;;;;;;;20.35;8.15;;;3.50;99.90;;;;;;5095165;28;20039;-81
2021/12/21 12:29:49;;;;;;;13.40;7.28;;;3.50;99.90;;;;;;5103976;28;20415;-81
2021/12/21 12:32:16;;;;;;;15.13;7.80;;;3.50;99.90;;;;;;5100040;28;20516;-75
2021/12/21 12:34:42;;;;;;;11.23;7.50;;;3.50;99.90;;;;;;5102724;28;20387;-79
2021/12/21 12:37:14;;;;;;;21.05;8.18;;;3.50;99.90;;;;;;5109119;28;20026;-81
2021/12/21 12:39:44;;;;;;;16.58;7.47;;;3.60;99.90;;;;;;5086076;28;20054;-79
2021/12/21 12:42:11;;;;;;;18.40;7.93;;;3.60;99.90;;;;;;5099362;28;20028;-79
2021/12/21 12:44:40;;;;;;;12.48;7.20;;;3.60;99.90;;;;;;5087460;28;20028;-79
2021/12/21 12:47:10;;;;;;;15.70;7.85;;;3.60;99.90;;;;;;5078046;28;20044;-79
2021/12/21 12:49:48;;;;;;;12.63;7.75;;;3.70;99.90;;;;;;5091494;28;20371;-80
2021/12/21 12:52:20;;;;;;;19.98;8.23;;;3.70;99.90;;;;;;5088479;28;20546;-77
2021/12/21 12:54:52;;;;;;;20.75;9.15;;;3.70;99.90;;;;;;5091602;28;20039;-79
2021/12/21 12:57:35;;;;;;;15.23;7.45;;;3.80;99.90;;;;;;5091727;28;20027;-78
2021/12/21 13:00:12;;;;;;;13.90;7.63;;;3.80;99.90;;;;;;5084758;28;20025;-80
2021/12/21 13:02:38;;;;;;;14.70;7.53;;;3.80;99.90;;;;;;5080925;28;20039;-78
2021/12/21 13:05:08;;;;;;;16.10;7.40;;;3.80;99.90;;;;;;5093427;28;20028;-77
2021/12/21 13:07:34;;;;;;;12.48;7.70;;;3.90;99.90;;;;;;5083884;28;20097;-79
2021/12/21 13:10:10;;;;;;;12.60;6.40;;;3.90;99.90;;;;;;5086028;28;20459;-79
2021/12/21 13:12:36;;;;;;;14.07;7.78;;;3.90;99.90;;;;;;5088778;28;20036;-78
2021/12/21 13:15:04;;;;;;;23.33;10.52;;;4.00;99.90;;;;;;5090672;28;20042;-79
2021/12/21 13:17:30;;;;;;;22.60;11.07;;;4.00;99.90;;;;;;5088373;28;20016;-79
2021/12/21 13:19:55;;;;;;;20.80;11.02;;;4.00;99.90;;;;;;5090661;28;20388;-79
2021/12/21 13:22:26;;;;;;;19.98;10.35;;;4.00;99.90;;;;;;5093402;28;20043;-80
2021/12/21 13:24:52;;;;;;;17.08;10.20;;;4.00;99.90;;;;;;5089032;28;20031;-84
2021/12/21 13:27:20;;;;;;;18.67;9.77;;;4.10;99.90;;;;;;5094512;28;20120;-83
2021/12/21 13:29:47;;;;;;;25.75;10.70;;;4.00;99.90;;;;;;5110673;28;20024;-81
2021/12/21 13:32:15;;;;;;;27.70;10.88;;;4.00;99.90;;;;;;5098192;28;20103;-80
2021/12/21 13:34:44;;;;;;;17.80;11.07;;;4.00;99.90;;;;;;5092599;28;20101;-80
2021/12/21 13:37:13;;;;;;;19.17;10.30;;;4.00;99.90;;;;;;5083837;28;20028;-81
2021/12/21 13:39:52;;;;;;;16.27;9.70;;;4.00;99.90;;;;;;5085540;28;20111;-81
2021/12/21 13:42:23;;;;;;;17.92;10.07;;;4.00;99.90;;;;;;5074419;28;20025;-82
2021/12/21 13:44:56;;;;;;;14.55;8.88;;;3.90;99.90;;;;;;5078702;28;20036;-81
2021/12/21 13:47:27;;;;;;;15.32;8.60;;;3.90;99.90;;;;;;5083427;28;20052;-76